X  Sluiten METAR luchtvaart weer gegevens         LELL Aeropuerto de Barcelona Josep Tarradellas
Temperatuur
11°C Temperatuur
0°C Dauwpunt
47% Vochtigheid



Wind
4 KM/U
2 MPH
1 M/S
2 KTS



-1°
VRB
Huidig weer

Mostly Clear Grotendeels helder
Luchtdruk 1016 (hPa) - 30.01 (inHg)
Zicht 6 (mijl) - 10 (km)
Vliegveld
Vliegveld code LELL

Locatie : Aeropuerto de Barcelona Josep Tarradellas
Afstand: 20 (km)

Metar:
METAR LELL 281930Z AUTO VRB02KT CAVOK 11/M00 Q1016

Tijd: 28-02-2024 20:30 CET